ハバロフスク空港の過去48時間の天気

ハバロフスク空港 (Habarovsk)

現在時刻: 1/18 20:29 +10 (1/18 10:29 UTC) 以下の時間は現地時間です。

過去48時間のMETAR気象情報
時間 風向 風速(m/s) 視程 気温(℃) 湿度(%) 気圧(hPa) 天気現象
18 20:00 不定 1 9000m -15 66 1019
18 19:30 南西 2 9000m -15 66 1019
18 19:00 南南西 2 9000m -13 61 1019
18 18:30 南西 3 9000m -14 66 1019
18 18:00 西南西 3 10km以上 -14 60 1019
18 17:30 西 3 10km以上 -13 61 1019
18 17:00 西 3 10km以上 -12 56 1019
18 16:30 西 3 10km以上 -11 52 1019
18 16:00 南西 4 10km以上 -11 56 1019
18 15:30 西南西 5 10km以上 -11 56 1019
18 15:00 南西 5 10km以上 -11 56 1019
18 14:30 南西 5 10km以上 -11 56 1020
18 14:00 西南西 7 10km以上 -11 52 1020
18 13:30 西南西 5 10km以上 -11 52 1020
18 13:00 南西 3 10km以上 -12 56 1020
18 12:30 南西 3 9000m -12 56 1021
18 12:00 2 9000m -13 56 1021
18 11:30 2 9000m -14 60 1021
18 11:00 不定 1 9000m -15 60 1021
18 10:30 2 9000m -16 65 1021
18 10:00 3 9000m -17 65 1021
18 09:30 3 9000m -19 71 1021
18 09:00 3 9000m -20 77 1021
18 08:30 3 9000m -20 77 1021
18 08:00 2 10km以上 -21 64 1021
18 07:30 南西 4 10km以上 -18 71 1020
18 07:00 南南西 4 10km以上 -17 65 1020
18 06:30 3 10km以上 -20 77 1020
18 06:00 3 10km以上 -20 70 1020
18 05:30 南南東 3 10km以上 -20 70 1020
18 05:00 南南西 3 10km以上 -18 71 1020
18 04:30 南西 4 10km以上 -16 60 1020
18 04:00 南南西 3 10km以上 -16 60 1020
18 03:30 西南西 6 10km以上 -16 60 1020
18 03:00 西南西 7 10km以上 -15 60 1020
18 02:30 西南西 8 10km以上 -15 60 1020
18 02:00 西南西 6 10km以上 -15 60 1020
18 01:30 西南西 6 10km以上 -15 60 1020
18 01:00 西南西 5 10km以上 -15 60 1020
18 00:30 西南西 7 10km以上 -15 60 1020
18 00:00 西南西 8 10km以上 -14 55 1020
17 23:30 西南西 8 10km以上 -14 55 1020
17 23:00 西南西 8 10km以上 -14 60 1020
17 22:30 西南西 8 10km以上 -14 60 1020
17 22:00 西南西 7 10km以上 -14 60 1020
17 21:30 南西 5 10km以上 -14 55 1020
17 21:00 南西 4 10km以上 -14 60 1020
17 20:30 南南西 4 10km以上 -14 60 1020
17 20:00 南西 6 10km以上 -14 60 1020
17 19:30 南西 8 10km以上 -14 60 1020
17 19:00 南西 8 10km以上 -14 60 1020
17 18:30 西南西 8 10km以上 -14 60 1020
17 18:00 南西 8 10km以上 -14 60 1020
17 17:30 西南西 7 10km以上 -14 60 1019
17 17:00 西南西 7 10km以上 -13 56 1020
17 16:30 西南西 8 10km以上 -13 56 1019
17 16:00 西南西 7 10km以上 -14 60 1019
17 15:30 西南西 8 10km以上 -14 60 1019
17 15:00 西南西 9 10km以上 -13 56 1019
17 14:30 西南西 9 10km以上 -14 60 1019
17 14:00 西南西 9 10km以上 -14 60 1019
17 13:30 西南西 9 10km以上 -14 55 1019
17 13:00 西南西 8 10km以上 -15 60 1019
17 12:30 西南西 8 10km以上 -15 60 1020
17 12:00 南西 8 10km以上 -15 60 1020
17 11:30 南西 8 10km以上 -16 60 1020
17 11:00 南西 9 10km以上 -16 60 1020
17 10:30 南西 8 10km以上 -17 60 1020
17 10:00 南西 8 10km以上 -17 60 1020
17 09:30 南西 7 10km以上 -18 65 1019
17 09:00 南西 6 10km以上 -19 65 1019
17 08:30 南西 9 10km以上 -18 65 1019
17 08:00 南西 6 10km以上 -19 65 1019
17 07:30 南西 6 10km以上 -19 65 1018
17 07:00 南西 6 10km以上 -19 65 1019
17 06:30 南西 6 10km以上 -18 65 1018
17 06:00 南西 6 10km以上 -18 65 1018
17 05:30 南西 6 10km以上 -18 65 1018
17 05:00 南西 6 10km以上 -18 65 1018
17 04:30 南西 5 10km以上 -18 65 1018
17 04:00 南西 6 10km以上 -18 65 1018
17 03:30 南西 6 10km以上 -18 65 1018
17 03:00 西南西 6 10km以上 -18 65 1018
17 02:30 南西 6 10km以上 -18 71 1018
17 02:00 南西 7 10km以上 -17 65 1017
17 01:30 南西 5 10km以上 -17 65 1017
17 01:00 南西 5 10km以上 -17 65 1017
17 00:30 南西 5 10km以上 -16 60 1017
17 00:00 南西 5 10km以上 -17 65 1017
16 23:30 南南西 3 10km以上 -18 71 1017
16 23:00 3 10km以上 -18 71 1018
16 22:30 南南西 4 10km以上 -16 60 1017
16 22:00 南西 5 10km以上 -15 60 1018
16 21:30 南西 5 10km以上 -15 66 1018
16 21:00 南西 5 10km以上 -15 60 1017
16 20:30 南西 5 10km以上 -15 60 1018
UHHH 181000Z VRB01MPS 9000 NSC M15/M20 Q1019 R23L/090060 NOSIG RMK QFE758/1010
UHHH 180930Z 22002MPS 9000 NSC M15/M20 Q1019 R23L/090060 NOSIG RMK QFE758/1010
UHHH 180900Z 21002MPS 160V230 9000 NSC M13/M19 Q1019 R23L/090060 NOSIG RMK QFE757/1010
UHHH 180830Z 22003MPS 9000 NSC M14/M19 Q1019 R23L/090060 NOSIG RMK QFE757/1010
UHHH 180800Z 25003MPS CAVOK M14/M20 Q1019 R23L/090060 NOSIG RMK QFE758/1010
UHHH 180730Z 26003MPS CAVOK M13/M19 Q1019 R23L/090060 NOSIG RMK QFE758/1010
UHHH 180700Z 27003MPS 230V290 CAVOK M12/M19 Q1019 R23L/090060 NOSIG RMK QFE758/1010
UHHH 180630Z 26003MPS CAVOK M11/M19 Q1019 R23L/090060 NOSIG RMK QFE758/1010
UHHH 180600Z 23004MPS CAVOK M11/M18 Q1019 R23L/090060 NOSIG RMK QFE758/1010
UHHH 180530Z 24005MPS CAVOK M11/M18 Q1019 R23L/090060 NOSIG RMK QFE758/1011
UHHH 180500Z 23005MPS CAVOK M11/M18 Q1019 R23L/090060 NOSIG RMK QFE758/1011
UHHH 180430Z 23005MPS CAVOK M11/M18 Q1020 R23L/090060 NOSIG RMK QFE758/1011
UHHH 180400Z 24007MPS CAVOK M11/M19 Q1020 R23L/090060 NOSIG RMK QFE758/1011
UHHH 180330Z 24005MPS CAVOK M11/M19 Q1020 R23L/090060 NOSIG RMK QFE758/1011
UHHH 180300Z 23003MPS CAVOK M12/M19 Q1020 R23L/090060 NOSIG RMK QFE758/1011
UHHH 180230Z 22003MPS 170V250 9000 NSC M12/M19 Q1021 R23L/090060 NOSIG RMK QFE759/1012
UHHH 180200Z 18002MPS 9000 NSC M13/M20 Q1021 R23L/090060 NOSIG RMK QFE759/1012
UHHH 180130Z 17002MPS 140V200 9000 NSC M14/M20 Q1021 R23L/090060 NOSIG RMK QFE759/1012
UHHH 180100Z VRB01MPS 9000 NSC M15/M21 Q1021 R23L/090060 NOSIG RMK QFE759/1012
UHHH 180030Z 17002MPS 9000 NSC M16/M21 Q1021 R23L/090060 NOSIG RMK QFE759/1013
UHHH 180000Z 18003MPS 9000 NSC M17/M22 Q1021 R23L/090060 NOSIG RMK QFE759/1012
UHHH 172330Z 17003MPS 9000 NSC M19/M23 Q1021 R23L/090060 NOSIG RMK QFE759/1013
UHHH 172300Z 18003MPS 9000 NSC M20/M23 Q1021 R23L/090060 NOSIG RMK QFE759/1012
UHHH 172230Z 18003MPS 150V220 9000 NSC M20/M23 Q1021 R23L/090060 NOSIG RMK QFE759/1012
UHHH 172200Z 19002MPS 160V230 CAVOK M21/M26 Q1021 R23L/090060 NOSIG RMK QFE759/1012
UHHH 172130Z 22004MPS CAVOK M18/M22 Q1020 R23L/090060 NOSIG RMK QFE759/1012
UHHH 172100Z 21004MPS CAVOK M17/M22 Q1020 R23L/090060 NOSIG RMK QFE759/1012
UHHH 172030Z 18003MPS CAVOK M20/M23 Q1020 R23L/090060 NOSIG RMK QFE759/1012
UHHH 172000Z 17003MPS CAVOK M20/M24 Q1020 R23L/090060 NOSIG RMK QFE759/1012
UHHH 171930Z 16003MPS 120V210 CAVOK M20/M24 Q1020 R23L/090060 NOSIG RMK QFE759/1012
UHHH 171900Z 20003MPS 170V240 CAVOK M18/M22 Q1020 R23L/090060 NOSIG RMK QFE759/1012
UHHH 171830Z 22004MPS CAVOK M16/M22 Q1020 R23L/090060 NOSIG RMK QFE759/1012
UHHH 171800Z 21003MPS CAVOK M16/M22 Q1020 R23L/090060 NOSIG RMK QFE759/1012
UHHH 171730Z 24006MPS CAVOK M16/M22 Q1020 R23L/090060 NOSIG RMK QFE759/1012
UHHH 171700Z 25007MPS CAVOK M15/M21 Q1020 R23L/090060 NOSIG RMK QFE758/1011
UHHH 171630Z 24008MPS CAVOK M15/M21 Q1020 R23L/090060 NOSIG RMK QFE758/1011
UHHH 171600Z 24006MPS CAVOK M15/M21 Q1020 R23L/090060 NOSIG RMK QFE758/1011
UHHH 171530Z 24006MPS CAVOK M15/M21 Q1020 R23L/090060 NOSIG RMK QFE758/1011
UHHH 171500Z 24005MPS CAVOK M15/M21 Q1020 R23L/090060 NOSIG RMK QFE758/1011
UHHH 171430Z 25007MPS CAVOK M15/M21 Q1020 R23L/090060 NOSIG RMK QFE758/1011
UHHH 171400Z 24008MPS CAVOK M14/M21 Q1020 R23L/090060 NOSIG RMK QFE758/1011
UHHH 171330Z 24008MPS CAVOK M14/M21 Q1020 R23L/090060 NOSIG RMK QFE758/1011
UHHH 171300Z 25008MPS CAVOK M14/M20 Q1020 R23L/090060 NOSIG RMK QFE758/1011
UHHH 171230Z 24008MPS CAVOK M14/M20 Q1020 R23L/090060 NOSIG RMK QFE758/1011
UHHH 171200Z 24007MPS CAVOK M14/M20 Q1020 R23L/090060 NOSIG RMK QFE758/1011
UHHH 171130Z 23005MPS CAVOK M14/M21 Q1020 R23L/090060 NOSIG RMK QFE758/1011
UHHH 171100Z 22004MPS 180V240 CAVOK M14/M20 Q1020 R23L/090060 NOSIG RMK QFE758/1011
UHHH 171030Z 21004MPS CAVOK M14/M20 Q1020 R23L/090060 NOSIG RMK QFE758/1011
UHHH 171000Z 22006MPS CAVOK M14/M20 Q1020 R23L/090060 NOSIG RMK QFE758/1011
UHHH 170930Z 23008MPS CAVOK M14/M20 Q1020 R23L/090060 NOSIG RMK QFE758/1011
UHHH 170900Z 23008MPS CAVOK M14/M20 Q1020 R23L/090060 NOSIG RMK QFE758/1011
UHHH 170830Z 24008MPS CAVOK M14/M20 Q1020 R23L/090060 NOSIG RMK QFE758/1011
UHHH 170800Z 23008MPS CAVOK M14/M20 Q1020 R23L/090060 NOSIG RMK QFE758/1011
UHHH 170730Z 24007MPS CAVOK M14/M20 Q1019 R23L/090060 NOSIG RMK QFE758/1011
UHHH 170700Z 25007MPS CAVOK M13/M20 Q1020 R23L/090060 NOSIG RMK QFE758/1011
UHHH 170630Z 24008MPS CAVOK M13/M20 Q1019 R23L/090060 NOSIG RMK QFE758/1011
UHHH 170600Z 25007MPS CAVOK M14/M20 Q1019 R23L/090060 NOSIG RMK QFE758/1011
UHHH 170530Z 24008MPS CAVOK M14/M20 Q1019 WS R23L R23L/090060 NOSIG RMK QFE758/1010
UHHH 170500Z 24009MPS CAVOK M13/M20 Q1019 WS R23L R23L/090060 NOSIG RMK QFE758/1010
UHHH 170430Z 24009MPS CAVOK M14/M20 Q1019 WS R23L R23L/090060 NOSIG RMK QFE758/1010
UHHH 170400Z 25009MPS CAVOK M14/M20 Q1019 WS R23L R23L/090060 NOSIG RMK QFE758/1011
UHHH 170330Z 25009MPS CAVOK M14/M21 Q1019 R23L/090060 NOSIG RMK QFE758/1011
UHHH 170300Z 25008MPS CAVOK M15/M21 Q1019 R23L/090060 NOSIG RMK QFE758/1011
UHHH 170230Z 24008MPS CAVOK M15/M21 Q1020 R23L/090060 NOSIG RMK QFE758/1011
UHHH 170200Z 23008MPS CAVOK M15/M21 Q1020 R23L/090060 NOSIG RMK QFE758/1011
UHHH 170130Z 23008MPS CAVOK M16/M22 Q1020 R23L/090060 NOSIG RMK QFE758/1011
UHHH 170100Z 23009MPS CAVOK M16/M22 Q1020 R23L/090060 NOSIG RMK QFE758/1011
UHHH 170030Z 23008MPS CAVOK M17/M23 Q1020 R23L/090060 NOSIG RMK QFE758/1011
UHHH 170000Z 23008MPS CAVOK M17/M23 Q1020 R23L/090060 NOSIG RMK QFE758/1011
UHHH 162330Z 23007MPS CAVOK M18/M23 Q1019 R23L/090060 NOSIG RMK QFE758/1010
UHHH 162300Z 23006MPS CAVOK M19/M24 Q1019 R23L/090060 NOSIG RMK QFE758/1010
UHHH 162230Z 23009MPS CAVOK M18/M23 Q1019 R23L/090060 NOSIG RMK QFE757/1010
UHHH 162200Z 23006MPS CAVOK M19/M24 Q1019 R23L/090060 NOSIG RMK QFE757/1010
UHHH 162130Z 23006MPS CAVOK M19/M24 Q1018 R23L/090060 NOSIG RMK QFE757/1010
UHHH 162100Z 23006MPS CAVOK M19/M24 Q1019 R23L/090060 NOSIG RMK QFE757/1010
UHHH 162030Z 23006MPS CAVOK M18/M23 Q1018 R23L/090060 NOSIG RMK QFE757/1010
UHHH 162000Z 23006MPS CAVOK M18/M23 Q1018 R23L/090060 NOSIG RMK QFE757/1010
UHHH 161930Z 23006MPS CAVOK M18/M23 Q1018 R23L/090060 NOSIG RMK QFE757/1009
UHHH 161900Z 23006MPS CAVOK M18/M23 Q1018 R23L/090060 NOSIG RMK QFE757/1010
UHHH 161830Z 22005MPS CAVOK M18/M23 Q1018 R23L/090060 NOSIG RMK QFE757/1009
UHHH 161800Z 23006MPS CAVOK M18/M23 Q1018 R23L/090060 NOSIG RMK QFE757/1009
UHHH 161730Z 23006MPS CAVOK M18/M23 Q1018 R23L/090060 NOSIG RMK QFE757/1009
UHHH 161700Z 24006MPS CAVOK M18/M23 Q1018 R23L/090060 NOSIG RMK QFE757/1009
UHHH 161630Z 23006MPS CAVOK M18/M22 Q1018 R23L/090060 NOSIG RMK QFE757/1009
UHHH 161600Z 23007MPS CAVOK M17/M22 Q1017 R23L/090060 NOSIG RMK QFE756/1009
UHHH 161530Z 22005MPS CAVOK M17/M22 Q1017 R23L/090060 NOSIG RMK QFE756/1009
UHHH 161500Z 22005MPS CAVOK M17/M22 Q1017 R23L/090060 NOSIG RMK QFE756/1009
UHHH 161430Z 22005MPS CAVOK M16/M22 Q1017 R23L/090060 NOSIG RMK QFE756/1009
UHHH 161400Z 22005MPS CAVOK M17/M22 Q1017 R23L/090060 NOSIG RMK QFE756/1009
UHHH 161330Z 20003MPS CAVOK M18/M22 Q1017 R23L/090060 NOSIG RMK QFE756/1009
UHHH 161300Z 19003MPS CAVOK M18/M22 Q1018 R23L/090060 NOSIG RMK QFE757/1009
UHHH 161230Z 21004MPS 160V240 CAVOK M16/M22 Q1017 R23L/090060 NOSIG RMK QFE756/1009
UHHH 161200Z 22005MPS CAVOK M15/M21 Q1018 R23L/090060 NOSIG RMK QFE757/1009
UHHH 161130Z 22005MPS CAVOK M15/M20 Q1018 R23L/090060 NOSIG RMK QFE757/1009
UHHH 161100Z 22005MPS CAVOK M15/M21 Q1017 R23L/090060 NOSIG RMK QFE756/1009
UHHH 161030Z 22005MPS CAVOK M15/M21 Q1018 R23L/090060 NOSIG RMK QFE757/1009